Time;durP1;ratioP1;P1;durP2;ratioP2;P2;SDS_P1;SDS_P2;PMS_P1;PMS_P2;Temp;Humidity;BMP_temperature;BMP_pressure;BME280_temperature;BME280_humidity;BME280_pressure;Samples;Min_cycle;Max_cycle;Signal;HPM_P1;HPM_P2
2021/04/18 00:00:32;;;;;;;4.60;4.20;;;4.20;99.90;;;;;;5069043;28;20204;-72
2021/04/18 00:02:58;;;;;;;4.60;4.20;;;4.20;99.90;;;;;;5069230;28;20204;-73
2021/04/18 00:05:26;;;;;;;5.55;4.60;;;4.20;99.90;;;;;;5068939;28;20208;-74
2021/04/18 00:07:54;;;;;;;5.10;4.57;;;4.20;99.90;;;;;;5069263;28;20205;-72
2021/04/18 00:10:21;;;;;;;5.15;4.65;;;4.30;99.90;;;;;;5068819;28;20874;-72
2021/04/18 00:12:47;;;;;;;4.85;3.95;;;4.20;99.90;;;;;;5069406;28;20207;-73
2021/04/18 00:15:16;;;;;;;4.78;4.28;;;4.30;99.90;;;;;;5068955;28;20207;-72
2021/04/18 00:17:42;;;;;;;4.40;4.00;;;4.20;99.90;;;;;;5069511;28;20606;-74
2021/04/18 00:20:09;;;;;;;4.45;4.05;;;4.30;99.90;;;;;;5068589;28;20579;-74
2021/04/18 00:22:36;;;;;;;4.55;4.15;;;4.20;99.90;;;;;;5069349;28;20204;-73
2021/04/18 00:25:03;;;;;;;4.55;4.15;;;4.20;99.90;;;;;;5068948;28;20200;-73
2021/04/18 00:27:29;;;;;;;4.45;4.05;;;4.20;99.90;;;;;;5068918;28;20224;-72
2021/04/18 00:29:56;;;;;;;6.05;5.10;;;4.20;99.90;;;;;;5069179;28;20228;-71
2021/04/18 00:32:23;;;;;;;5.75;5.25;;;4.10;99.90;;;;;;5068321;28;20212;-71
2021/04/18 00:34:49;;;;;;;5.90;4.70;;;4.10;99.90;;;;;;5069282;28;20574;-71
2021/04/18 00:37:15;;;;;;;5.90;5.30;;;4.20;99.90;;;;;;5068725;28;20192;-72
2021/04/18 00:39:41;;;;;;;6.00;4.40;;;4.20;99.90;;;;;;5069083;28;20224;-71
2021/04/18 00:42:07;;;;;;;6.18;5.45;;;4.20;99.90;;;;;;5068538;28;20302;-73
2021/04/18 00:44:34;;;;;;;5.30;4.78;;;4.20;99.90;;;;;;5069071;28;20212;-72
2021/04/18 00:47:00;;;;;;;5.05;4.55;;;4.20;99.90;;;;;;5073164;28;20224;-72
2021/04/18 00:49:27;;;;;;;5.43;4.93;;;4.20;99.90;;;;;;5072832;28;20224;-72
2021/04/18 00:51:53;;;;;;;5.13;4.68;;;4.20;99.90;;;;;;5072511;28;20204;-73
2021/04/18 00:54:20;;;;;;;4.57;4.18;;;4.20;99.90;;;;;;5072609;28;20226;-74
2021/04/18 00:56:46;;;;;;;5.20;4.70;;;4.10;99.90;;;;;;5073208;28;20203;-73
2021/04/18 00:59:12;;;;;;;4.95;4.35;;;4.10;99.90;;;;;;5072649;28;20220;-73
2021/04/18 01:01:38;;;;;;;6.18;5.20;;;4.10;99.90;;;;;;5072240;28;20208;-73
2021/04/18 01:04:05;;;;;;;5.38;4.88;;;4.10;99.90;;;;;;5072828;28;20208;-72
2021/04/18 01:06:33;;;;;;;4.43;4.03;;;4.10;99.90;;;;;;5072331;28;20269;-73
2021/04/18 01:08:59;;;;;;;5.20;4.72;;;4.00;99.90;;;;;;5072751;28;20220;-73
2021/04/18 01:11:25;;;;;;;6.00;4.20;;;4.00;99.90;;;;;;5071915;28;20809;-72
2021/04/18 01:13:52;;;;;;;5.25;4.70;;;4.00;99.90;;;;;;5072302;28;20196;-71
2021/04/18 01:16:18;;;;;;;7.90;4.82;;;4.00;99.90;;;;;;5072335;28;20196;-72
2021/04/18 01:18:44;;;;;;;5.65;5.00;;;4.00;99.90;;;;;;5072138;28;20228;-72
2021/04/18 01:21:12;;;;;;;5.88;5.00;;;4.00;99.90;;;;;;5071733;28;20207;-72
2021/04/18 01:23:39;;;;;;;5.53;5.03;;;4.00;99.90;;;;;;5072429;28;20207;-72
2021/04/18 01:26:06;;;;;;;5.85;4.85;;;4.00;99.90;;;;;;5072136;28;20216;-71
2021/04/18 01:28:33;;;;;;;5.53;4.85;;;3.90;99.90;;;;;;5072398;28;20290;-72
2021/04/18 01:30:59;;;;;;;5.57;5.07;;;3.90;99.90;;;;;;5072345;28;20200;-73
2021/04/18 01:33:26;;;;;;;5.57;5.07;;;3.90;99.90;;;;;;5075840;28;20211;-72
2021/04/18 01:35:53;;;;;;;5.43;4.93;;;3.90;99.90;;;;;;5075288;28;20201;-72
2021/04/18 01:38:20;;;;;;;5.43;4.93;;;3.90;99.90;;;;;;5072316;28;20228;-74
2021/04/18 01:40:46;;;;;;;5.30;4.80;;;4.00;99.90;;;;;;5072128;28;20275;-72
2021/04/18 01:43:15;;;;;;;5.45;4.95;;;4.00;99.90;;;;;;5071611;28;20689;-72
2021/04/18 01:45:42;;;;;;;5.18;4.68;;;4.00;99.90;;;;;;5071960;28;20585;-72
2021/04/18 01:48:10;;;;;;;5.15;4.65;;;3.90;99.90;;;;;;5071684;28;20235;-73
2021/04/18 01:50:41;;;;;;;6.03;5.43;;;3.90;99.90;;;;;;5071477;28;20209;-73
2021/04/18 01:53:08;;;;;;;6.03;5.18;;;3.90;99.90;;;;;;5071564;28;20250;-72
2021/04/18 01:55:35;;;;;;;6.00;5.40;;;3.90;99.90;;;;;;5071341;28;20208;-72
2021/04/18 01:58:01;;;;;;;5.68;5.18;;;3.80;99.90;;;;;;5071586;28;20208;-72
2021/04/18 02:00:27;;;;;;;6.10;5.50;;;3.80;99.90;;;;;;5070707;28;20693;-72
2021/04/18 02:02:54;;;;;;;6.10;5.55;;;3.80;99.90;;;;;;5071736;28;20211;-72
2021/04/18 02:05:20;;;;;;;6.13;5.28;;;3.80;99.90;;;;;;5071090;28;20257;-72
2021/04/18 02:07:47;;;;;;;7.03;5.43;;;3.90;99.90;;;;;;5071554;28;20221;-72
2021/04/18 02:10:14;;;;;;;6.97;5.78;;;3.90;99.90;;;;;;5070670;28;20200;-72
2021/04/18 02:12:42;;;;;;;5.95;5.35;;;3.90;99.90;;;;;;5071317;28;20590;-72
2021/04/18 02:15:10;;;;;;;6.03;5.45;;;3.90;99.90;;;;;;5071176;28;20227;-73
2021/04/18 02:17:36;;;;;;;6.97;6.20;;;3.90;99.90;;;;;;5071256;28;20831;-74
2021/04/18 02:20:04;;;;;;;6.97;6.38;;;3.90;99.90;;;;;;5071324;28;20220;-72
2021/04/18 02:22:30;;;;;;;6.65;6.05;;;3.90;99.90;;;;;;5070634;28;20204;-72
2021/04/18 02:24:56;;;;;;;6.45;5.85;;;3.80;99.90;;;;;;5071189;28;20718;-72
2021/04/18 02:27:25;;;;;;;6.10;5.50;;;3.90;99.90;;;;;;5070924;28;20224;-71
2021/04/18 02:29:52;;;;;;;9.52;6.10;;;3.90;99.90;;;;;;5070927;28;20220;-72
2021/04/18 02:32:19;;;;;;;7.85;5.85;;;3.90;99.90;;;;;;5070286;28;20212;-72
2021/04/18 02:34:45;;;;;;;6.20;5.57;;;4.00;99.90;;;;;;5070776;28;20204;-73
2021/04/18 02:37:11;;;;;;;6.57;5.90;;;3.90;99.90;;;;;;5070665;28;20614;-73
2021/04/18 02:39:38;;;;;;;6.85;6.15;;;3.90;99.90;;;;;;5070767;28;20235;-73
2021/04/18 02:42:05;;;;;;;6.60;5.90;;;3.90;99.90;;;;;;5070106;28;20197;-72
2021/04/18 02:44:31;;;;;;;7.97;6.28;;;4.00;99.90;;;;;;5070800;28;20196;-71
2021/04/18 02:46:58;;;;;;;7.70;6.57;;;3.90;99.90;;;;;;5070544;28;20220;-70
2021/04/18 02:49:25;;;;;;;6.97;6.28;;;3.90;99.90;;;;;;5070396;28;20217;-72
2021/04/18 02:51:51;;;;;;;6.28;5.68;;;3.90;99.90;;;;;;5069906;28;20204;-70
2021/04/18 02:54:18;;;;;;;6.50;5.90;;;3.90;99.90;;;;;;5070380;28;20207;-71
2021/04/18 02:56:44;;;;;;;7.50;6.80;;;3.90;99.90;;;;;;5070582;28;20204;-70
2021/04/18 02:59:11;;;;;;;7.90;6.30;;;3.90;99.90;;;;;;5070037;28;20235;-71
2021/04/18 03:01:37;;;;;;;6.82;6.10;;;3.90;99.90;;;;;;5070286;28;20211;-71
2021/04/18 03:04:05;;;;;;;7.18;6.35;;;3.90;99.90;;;;;;5070306;28;20205;-72
2021/04/18 03:06:31;;;;;;;8.55;7.57;;;3.90;99.90;;;;;;5070125;28;20624;-71
2021/04/18 03:08:57;;;;;;;7.65;6.85;;;3.90;99.90;;;;;;5069435;28;20220;-71
2021/04/18 03:11:24;;;;;;;7.40;6.70;;;3.90;99.90;;;;;;5069283;28;20216;-72
2021/04/18 03:13:50;;;;;;;8.45;7.55;;;3.80;99.90;;;;;;5070238;28;20208;-73
2021/04/18 03:16:16;;;;;;;7.07;6.47;;;3.80;99.90;;;;;;5069705;28;20199;-71
2021/04/18 03:18:43;;;;;;;7.45;6.72;;;3.80;99.90;;;;;;5070113;28;20220;-72
2021/04/18 03:21:10;;;;;;;7.47;6.65;;;3.80;99.90;;;;;;5069125;28;20215;-72
2021/04/18 03:23:36;;;;;;;7.75;6.95;;;3.80;99.90;;;;;;5070000;28;20737;-70
2021/04/18 03:26:03;;;;;;;7.82;7.03;;;3.80;99.90;;;;;;5069823;28;20217;-70
2021/04/18 03:28:29;;;;;;;8.35;7.55;;;3.80;99.90;;;;;;5069353;28;20225;-71
2021/04/18 03:30:55;;;;;;;8.23;7.43;;;3.80;99.90;;;;;;5069415;28;20236;-72
2021/04/18 03:33:22;;;;;;;8.23;7.43;;;3.80;99.90;;;;;;5069531;28;20211;-72
2021/04/18 03:35:48;;;;;;;8.38;6.93;;;3.80;99.90;;;;;;5069923;28;20607;-71
2021/04/18 03:38:15;;;;;;;10.13;7.70;;;3.80;99.90;;;;;;5069252;28;20231;-72
2021/04/18 03:40:42;;;;;;;8.90;7.70;;;3.80;99.90;;;;;;5069067;28;20216;-72
2021/04/18 03:43:09;;;;;;;8.25;7.47;;;3.80;99.90;;;;;;5069448;28;20196;-72
2021/04/18 03:45:36;;;;;;;7.47;6.78;;;3.70;99.90;;;;;;5069388;28;20203;-71
2021/04/18 03:48:02;;;;;;;7.55;6.63;;;3.70;99.90;;;;;;5069535;28;20605;-71
2021/04/18 03:50:28;;;;;;;7.88;7.18;;;3.70;99.90;;;;;;5068505;28;20242;-71
2021/04/18 03:52:55;;;;;;;7.55;6.72;;;3.70;99.90;;;;;;5069617;28;20223;-71
2021/04/18 03:55:23;;;;;;;8.20;7.40;;;3.80;99.90;;;;;;5069041;28;20215;-72
2021/04/18 03:57:50;;;;;;;7.72;7.03;;;3.80;99.90;;;;;;5069121;28;20226;-73
2021/04/18 04:00:17;;;;;;;8.00;7.20;;;3.80;99.90;;;;;;5068694;28;20976;-71
2021/04/18 04:02:43;;;;;;;7.70;6.95;;;3.90;99.90;;;;;;5069179;28;20241;-71
2021/04/18 04:05:10;;;;;;;7.60;6.68;;;3.90;99.90;;;;;;5069077;28;20200;-73
2021/04/18 04:07:36;;;;;;;8.20;6.90;;;3.80;99.90;;;;;;5069142;28;20224;-71
2021/04/18 04:10:05;;;;;;;8.02;6.93;;;3.80;99.90;;;;;;5068854;28;20707;-71
2021/04/18 04:12:32;;;;;;;7.03;6.43;;;3.80;99.90;;;;;;5068598;28;20319;-72
2021/04/18 04:14:58;;;;;;;9.25;7.50;;;3.80;99.90;;;;;;5069085;28;20204;-71
2021/04/18 04:17:26;;;;;;;8.00;6.80;;;3.80;99.90;;;;;;5068915;28;20200;-72
2021/04/18 04:19:52;;;;;;;8.38;7.47;;;3.80;99.90;;;;;;5068660;28;20583;-72
2021/04/18 04:22:19;;;;;;;8.73;7.75;;;3.70;99.90;;;;;;5068308;28;20205;-70
2021/04/18 04:24:45;;;;;;;8.55;7.68;;;3.80;99.90;;;;;;5068968;28;20285;-71
2021/04/18 04:27:11;;;;;;;8.18;7.38;;;3.80;99.90;;;;;;5068305;28;20877;-70
2021/04/18 04:29:38;;;;;;;8.95;7.10;;;3.80;99.90;;;;;;5068946;28;20742;-72
2021/04/18 04:32:05;;;;;;;7.40;6.68;;;3.80;99.90;;;;;;5068207;28;20208;-71
2021/04/18 04:34:31;;;;;;;7.82;7.00;;;3.80;99.90;;;;;;5068778;28;20215;-70
2021/04/18 04:36:58;;;;;;;8.60;7.57;;;3.80;99.90;;;;;;5068804;28;20879;-71
2021/04/18 04:39:24;;;;;;;9.38;7.30;;;3.80;99.90;;;;;;5068298;28;20228;-70
2021/04/18 04:41:50;;;;;;;8.13;7.22;;;3.80;99.90;;;;;;5068472;28;20207;-70
2021/04/18 04:44:16;;;;;;;9.63;6.75;;;3.90;99.90;;;;;;5068270;28;20238;-70
2021/04/18 04:46:44;;;;;;;9.73;7.00;;;3.90;99.90;;;;;;5068741;28;20228;-73
2021/04/18 04:49:10;;;;;;;8.60;7.10;;;3.90;99.90;;;;;;5068400;28;20228;-71
2021/04/18 04:51:36;;;;;;;7.68;6.85;;;3.90;99.90;;;;;;5068141;28;20207;-70
2021/04/18 04:54:03;;;;;;;8.70;7.43;;;3.90;99.90;;;;;;5068725;28;20228;-72
2021/04/18 04:56:29;;;;;;;8.63;7.82;;;3.90;99.90;;;;;;5068215;28;20841;-72
2021/04/18 04:58:55;;;;;;;8.90;7.30;;;3.90;99.90;;;;;;5068787;28;20228;-71
2021/04/18 05:01:22;;;;;;;7.55;6.15;;;4.00;99.90;;;;;;5068174;28;20201;-71
2021/04/18 05:03:49;;;;;;;8.20;7.40;;;4.00;99.90;;;;;;5069016;28;20204;-72
2021/04/18 05:06:15;;;;;;;7.70;6.90;;;4.00;99.90;;;;;;5068509;28;20224;-69
2021/04/18 05:08:42;;;;;;;8.48;7.57;;;4.00;99.90;;;;;;5068473;28;20224;-70
2021/04/18 05:11:08;;;;;;;10.00;7.75;;;3.90;99.90;;;;;;5067820;28;20295;-69
2021/04/18 05:13:34;;;;;;;9.15;7.47;;;3.90;99.90;;;;;;5068217;28;20737;-69
2021/04/18 05:16:01;;;;;;;9.70;7.80;;;4.00;99.90;;;;;;5068706;28;20200;-70
2021/04/18 05:18:27;;;;;;;9.70;7.85;;;4.00;99.90;;;;;;5067839;28;20216;-70
2021/04/18 05:20:54;;;;;;;8.93;8.02;;;4.00;99.90;;;;;;5068373;28;20201;-68
2021/04/18 05:23:20;;;;;;;8.52;7.63;;;4.00;99.90;;;;;;5068026;28;20227;-69
2021/04/18 05:25:47;;;;;;;9.25;8.10;;;4.10;99.90;;;;;;5068212;28;20208;-69
2021/04/18 05:28:13;;;;;;;8.90;8.00;;;4.10;99.90;;;;;;5069027;28;20227;-70
2021/04/18 05:30:39;;;;;;;11.43;8.40;;;4.10;99.90;;;;;;5069173;28;20208;-70
2021/04/18 05:33:06;;;;;;;9.25;8.07;;;4.20;99.90;;;;;;5072183;28;20204;-70
2021/04/18 05:35:32;;;;;;;8.75;7.85;;;4.20;99.90;;;;;;5071792;28;20196;-70
2021/04/18 05:37:59;;;;;;;8.05;7.32;;;4.20;99.90;;;;;;5071774;28;20696;-69
2021/04/18 05:40:25;;;;;;;9.65;8.65;;;4.20;99.90;;;;;;5135349;22;20232;-71
2021/04/18 05:42:52;;;;;;;8.68;7.88;;;4.20;99.90;;;;;;5070970;28;20196;-72
2021/04/18 05:45:18;;;;;;;9.52;8.10;;;4.30;99.90;;;;;;5071879;28;20204;-72
2021/04/18 05:47:44;;;;;;;8.68;7.88;;;4.30;99.90;;;;;;5071586;28;20217;-72
2021/04/18 05:50:11;;;;;;;9.35;7.47;;;4.40;99.90;;;;;;5091177;28;20211;-72
2021/04/18 05:52:38;;;;;;;8.68;7.10;;;4.50;99.90;;;;;;5091835;28;20196;-71
2021/04/18 05:55:07;;;;;;;8.40;7.60;;;4.50;99.90;;;;;;5091382;28;20225;-72
2021/04/18 05:57:33;;;;;;;7.28;6.57;;;4.50;99.90;;;;;;5091629;28;20272;-72
2021/04/18 06:00:00;;;;;;;8.43;7.60;;;4.50;99.90;;;;;;5091224;28;20223;-72
2021/04/18 06:02:26;;;;;;;8.63;7.80;;;4.50;99.90;;;;;;5091096;28;20196;-73
2021/04/18 06:04:52;;;;;;;10.02;8.13;;;4.50;99.90;;;;;;5091494;28;20293;-72
2021/04/18 06:07:18;;;;;;;10.38;8.77;;;4.50;99.90;;;;;;5091176;28;20920;-72
2021/04/18 06:09:44;;;;;;;9.23;7.72;;;4.60;99.90;;;;;;5091522;28;20228;-72
2021/04/18 06:12:12;;;;;;;8.90;8.00;;;4.60;99.90;;;;;;5090638;28;20203;-72
2021/04/18 06:14:38;;;;;;;8.18;7.40;;;4.70;99.90;;;;;;5090990;28;20204;-73
2021/04/18 06:17:04;;;;;;;8.45;7.53;;;4.70;99.90;;;;;;5091479;28;20774;-73
2021/04/18 06:19:31;;;;;;;7.68;6.88;;;4.60;99.90;;;;;;5091271;28;20265;-73
2021/04/18 06:21:57;;;;;;;7.63;6.50;;;4.60;99.90;;;;;;5091022;28;20203;-73
2021/04/18 06:24:23;;;;;;;9.07;8.20;;;4.60;99.90;;;;;;5090900;28;20612;-73
2021/04/18 06:26:49;;;;;;;8.25;7.45;;;4.70;99.90;;;;;;5091432;28;20235;-73
2021/04/18 06:29:17;;;;;;;8.85;7.07;;;4.80;99.90;;;;;;5091069;28;20219;-73
2021/04/18 06:31:44;;;;;;;8.48;7.57;;;4.90;99.90;;;;;;5091099;28;20199;-73
2021/04/18 06:34:11;;;;;;;8.32;7.53;;;4.90;99.90;;;;;;5091279;28;20215;-73
2021/04/18 06:36:38;;;;;;;7.35;6.65;;;5.00;99.90;;;;;;5091178;28;20199;-73
2021/04/18 06:39:04;;;;;;;9.00;7.78;;;5.00;99.90;;;;;;5091313;28;20215;-72
2021/04/18 06:41:34;;;;;;;8.25;7.40;;;5.10;99.90;;;;;;5090182;28;20218;-72
2021/04/18 06:44:02;;;;;;;9.10;7.70;;;5.10;99.90;;;;;;5091429;28;20256;-72
2021/04/18 06:46:30;;;;;;;9.27;8.38;;;5.20;99.90;;;;;;5090788;28;20227;-72
2021/04/18 06:48:59;;;;;;;7.68;6.97;;;5.20;99.90;;;;;;5091282;28;20262;-72
2021/04/18 06:51:25;;;;;;;7.78;7.07;;;5.20;99.90;;;;;;5090341;28;20204;-72
2021/04/18 06:53:51;;;;;;;8.43;7.63;;;5.20;99.90;;;;;;5091265;28;20200;-72
2021/04/18 06:56:17;;;;;;;9.90;8.20;;;5.20;99.90;;;;;;5091051;28;20200;-73
2021/04/18 06:58:44;;;;;;;7.88;7.07;;;5.30;99.90;;;;;;5090822;28;20231;-72
2021/04/18 07:01:10;;;;;;;8.45;7.65;;;5.30;99.90;;;;;;5090572;28;20222;-72
2021/04/18 07:03:38;;;;;;;9.20;7.72;;;5.40;99.90;;;;;;5090549;28;20196;-73
2021/04/18 07:06:04;;;;;;;10.05;8.13;;;5.40;99.90;;;;;;5090849;28;20200;-73
2021/04/18 07:08:32;;;;;;;8.85;7.43;;;5.50;99.90;;;;;;5090322;28;20789;-72
2021/04/18 07:11:13;;;;;;;8.93;7.75;;;5.60;99.90;;;;;;5090433;28;20298;-73
2021/04/18 07:13:41;;;;;;;8.15;7.45;;;5.70;99.90;;;;;;5090544;28;20819;-72
2021/04/18 07:16:22;;;;;;;8.13;7.28;;;5.70;99.90;;;;;;5090732;28;20631;-72
2021/04/18 07:18:49;;;;;;;8.02;7.22;;;5.80;99.90;;;;;;5090666;28;20226;-71
2021/04/18 07:21:16;;;;;;;8.45;7.63;;;5.90;99.90;;;;;;5089671;28;20207;-72
2021/04/18 07:23:42;;;;;;;11.48;8.05;;;6.00;99.90;;;;;;5090551;28;20204;-72
2021/04/18 07:26:21;;;;;;;9.50;7.97;;;6.20;99.90;;;;;;5090277;28;20207;-72
2021/04/18 07:28:48;;;;;;;8.13;7.32;;;6.20;99.90;;;;;;5090433;28;20224;-72
2021/04/18 07:31:29;;;;;;;9.00;8.02;;;6.40;99.90;;;;;;5089744;28;20662;-72
2021/04/18 07:34:05;;;;;;;9.10;8.20;;;6.60;99.90;;;;;;5090369;28;20203;-72
2021/04/18 07:36:32;;;;;;;10.27;9.25;;;6.80;99.90;;;;;;5090055;28;20327;-72
2021/04/18 07:38:59;;;;;;;9.07;8.02;;;7.00;99.90;;;;;;5090420;28;20231;-72
2021/04/18 07:41:26;;;;;;;7.85;7.15;;;7.20;99.90;;;;;;5089573;28;20216;-72
2021/04/18 07:43:53;;;;;;;9.30;8.40;;;7.10;99.90;;;;;;5089939;28;20207;-71
2021/04/18 07:46:20;;;;;;;9.13;7.85;;;7.00;99.90;;;;;;5089943;28;20245;-72
2021/04/18 07:48:47;;;;;;;11.55;8.05;;;6.90;99.90;;;;;;5089851;28;20223;-70
2021/04/18 07:51:15;;;;;;;8.50;7.60;;;6.90;99.90;;;;;;5089282;28;20199;-70
2021/04/18 07:53:42;;;;;;;8.52;7.70;;;6.90;99.90;;;;;;5086351;28;20215;-70
2021/04/18 07:56:09;;;;;;;8.50;7.60;;;6.90;99.90;;;;;;5069305;28;20196;-71
2021/04/18 07:58:37;;;;;;;7.90;7.10;;;6.80;99.90;;;;;;5069017;28;20640;-70
2021/04/18 08:01:04;;;;;;;8.65;7.75;;;6.70;99.90;;;;;;5068369;28;20267;-70
2021/04/18 08:03:30;;;;;;;8.05;7.07;;;6.70;99.90;;;;;;5068500;28;20193;-70
2021/04/18 08:05:57;;;;;;;10.32;7.05;;;6.80;99.90;;;;;;5069745;28;20204;-70
2021/04/18 08:08:25;;;;;;;9.20;8.05;;;6.90;99.90;;;;;;5069041;28;20221;-71
2021/04/18 08:10:53;;;;;;;10.45;8.38;;;7.00;99.90;;;;;;5068480;28;20215;-71
2021/04/18 08:13:21;;;;;;;12.30;8.82;;;7.10;99.90;;;;;;5068793;28;20235;-70
2021/04/18 08:16:04;;;;;;;11.05;9.38;;;7.30;99.90;;;;;;5068862;28;20200;-70
2021/04/18 08:18:33;;;;;;;10.13;8.52;;;7.40;99.90;;;;;;5068871;28;20231;-70
2021/04/18 08:21:00;;;;;;;9.68;8.00;;;7.40;99.90;;;;;;5068328;28;20196;-71
2021/04/18 08:23:37;;;;;;;9.70;7.70;;;7.40;99.90;;;;;;5068730;28;21051;-71
2021/04/18 08:26:09;;;;;;;9.35;7.30;;;7.50;99.90;;;;;;5069014;28;20200;-70
2021/04/18 08:29:09;;;;;;;8.20;6.35;;;7.60;99.90;;;;;;5068292;28;20233;-71
2021/04/18 08:31:58;;;;;;;6.55;5.95;;;7.60;99.90;;;;;;5068083;28;20226;-71
2021/04/18 08:34:26;;;;;;;13.25;6.63;;;7.60;99.90;;;;;;5068787;28;20200;-71
2021/04/18 08:36:54;;;;;;;7.90;7.05;;;7.60;99.90;;;;;;5068975;28;20262;-70
2021/04/18 08:39:29;;;;;;;9.77;6.35;;;7.50;99.90;;;;;;5068319;28;20243;-71
2021/04/18 08:41:58;;;;;;;6.63;5.97;;;7.40;99.90;;;;;;5068015;28;20253;-71
2021/04/18 08:44:26;;;;;;;8.27;6.35;;;7.30;99.90;;;;;;5068201;28;20872;-72
2021/04/18 08:46:54;;;;;;;9.00;6.25;;;7.20;99.90;;;;;;5068615;28;20326;-71
2021/04/18 08:49:28;;;;;;;10.57;6.82;;;7.10;99.90;;;;;;5062036;28;20654;-71
2021/04/18 08:51:55;;;;;;;12.80;6.47;;;7.10;99.90;;;;;;5076186;28;20219;-71
2021/04/18 08:54:28;;;;;;;6.75;6.05;;;7.10;99.90;;;;;;5083961;28;20553;-71
2021/04/18 08:56:56;;;;;;;8.32;6.60;;;7.30;99.90;;;;;;5087478;28;20200;-71
2021/04/18 08:59:22;;;;;;;8.93;7.13;;;7.40;99.90;;;;;;5087578;28;20244;-71
2021/04/18 09:02:02;;;;;;;10.27;7.00;;;7.50;99.90;;;;;;5087987;28;20241;-71
2021/04/18 09:04:30;;;;;;;7.95;6.18;;;7.70;99.90;;;;;;5088057;28;20214;-71
2021/04/18 09:06:57;;;;;;;6.88;5.93;;;7.80;99.90;;;;;;5090277;28;20215;-71
2021/04/18 09:09:23;;;;;;;7.55;6.43;;;7.90;99.90;;;;;;5089515;28;20247;-71
2021/04/18 09:11:51;;;;;;;10.35;6.22;;;8.00;99.90;;;;;;5073465;28;20200;-71
2021/04/18 09:14:22;;;;;;;6.72;6.03;;;7.90;99.90;;;;;;5075689;28;20200;-71
2021/04/18 09:16:49;;;;;;;6.60;5.65;;;7.80;99.90;;;;;;5072747;28;20215;-71
2021/04/18 09:19:23;;;;;;;8.45;6.60;;;7.70;99.90;;;;;;5083305;28;20269;-71
2021/04/18 09:22:11;;;;;;;7.50;6.00;;;7.80;99.90;;;;;;5065357;28;20733;-72
2021/04/18 09:24:41;;;;;;;6.72;5.70;;;7.80;99.90;;;;;;5067819;28;20277;-71
2021/04/18 09:27:11;;;;;;;7.45;5.85;;;7.90;99.90;;;;;;5065945;28;20228;-71
2021/04/18 09:29:44;;;;;;;6.30;5.32;;;8.00;99.90;;;;;;5084092;28;20233;-70
2021/04/18 09:32:12;;;;;;;7.53;6.15;;;8.20;99.90;;;;;;5079337;28;20786;-70
2021/04/18 09:34:41;;;;;;;9.05;6.43;;;8.10;99.90;;;;;;5069192;28;20212;-71
2021/04/18 09:37:12;;;;;;;6.88;5.88;;;8.30;99.90;;;;;;5068968;28;20197;-71
2021/04/18 09:39:40;;;;;;;8.48;5.90;;;8.50;99.90;;;;;;5069439;28;20235;-70
2021/04/18 09:42:08;;;;;;;6.72;5.60;;;8.70;99.90;;;;;;5069476;28;20205;-71
2021/04/18 09:44:39;;;;;;;8.43;6.00;;;8.70;99.90;;;;;;5069321;28;20299;-70
2021/04/18 09:47:16;;;;;;;7.38;5.97;;;8.70;99.90;;;;;;5069709;28;20227;-71
2021/04/18 09:49:44;;;;;;;9.15;6.68;;;8.80;99.90;;;;;;5070076;28;20234;-71
2021/04/18 09:52:11;;;;;;;7.90;6.22;;;8.80;99.90;;;;;;5069438;28;20203;-71
2021/04/18 09:54:37;;;;;;;11.77;6.45;;;8.70;99.90;;;;;;5069480;28;20207;-71
2021/04/18 09:57:14;;;;;;;7.63;6.30;;;8.70;99.90;;;;;;5069433;28;20291;-70
2021/04/18 09:59:41;;;;;;;9.57;6.55;;;8.70;99.90;;;;;;5069439;28;20232;-71
2021/04/18 10:02:12;;;;;;;6.43;5.60;;;8.50;99.90;;;;;;5069561;28;20708;-71
2021/04/18 10:04:39;;;;;;;9.10;6.40;;;8.50;99.90;;;;;;5069437;28;20235;-71
2021/04/18 10:07:05;;;;;;;7.57;6.88;;;8.70;99.90;;;;;;5068868;28;20714;-71
2021/04/18 10:09:51;;;;;;;7.13;6.20;;;8.70;99.90;;;;;;5068662;28;20266;-71
2021/04/18 10:12:17;;;;;;;10.90;7.10;;;8.70;99.90;;;;;;5068953;28;20206;-70
2021/04/18 10:14:45;;;;;;;7.97;5.97;;;8.80;99.90;;;;;;5069588;28;20212;-70
2021/04/18 10:17:12;;;;;;;6.63;5.93;;;8.80;99.90;;;;;;5068408;28;20192;-70
2021/04/18 10:19:50;;;;;;;9.90;6.85;;;8.90;99.90;;;;;;5069037;28;20247;-71
2021/04/18 10:22:17;;;;;;;8.70;7.22;;;8.80;99.90;;;;;;5068866;28;20223;-71
2021/04/18 10:24:47;;;;;;;7.30;6.15;;;8.80;99.90;;;;;;5060664;28;20200;-71
2021/04/18 10:27:16;;;;;;;8.10;6.28;;;8.90;99.90;;;;;;5065924;28;20245;-71
2021/04/18 10:29:44;;;;;;;9.93;6.00;;;9.00;99.50;;;;;;5067427;28;20220;-71
2021/04/18 10:32:11;;;;;;;10.38;7.78;;;9.00;99.50;;;;;;5065825;28;20200;-71
2021/04/18 10:34:38;;;;;;;10.52;6.90;;;9.10;99.90;;;;;;5066989;28;20236;-71
2021/04/18 10:37:05;;;;;;;8.20;6.35;;;9.20;99.90;;;;;;5067218;28;20673;-71
2021/04/18 10:39:32;;;;;;;9.55;7.45;;;9.30;99.90;;;;;;5066654;28;20240;-70
2021/04/18 10:41:58;;;;;;;8.45;6.95;;;9.40;99.90;;;;;;5067342;28;20239;-71
2021/04/18 10:44:27;;;;;;;6.75;6.05;;;9.50;99.60;;;;;;5074928;28;20676;-70
2021/04/18 10:46:55;;;;;;;9.70;7.10;;;9.50;99.50;;;;;;5066877;28;20625;-71
2021/04/18 10:49:23;;;;;;;8.20;5.53;;;9.70;99.30;;;;;;5065981;28;20215;-71
2021/04/18 10:51:49;;;;;;;8.63;6.95;;;9.90;99.00;;;;;;5077006;28;20200;-72
2021/04/18 10:54:19;;;;;;;8.20;6.47;;;10.10;98.60;;;;;;5086870;28;20208;-72
2021/04/18 10:56:46;;;;;;;8.70;7.10;;;10.30;99.20;;;;;;5087738;28;20852;-72
2021/04/18 10:59:12;;;;;;;8.65;7.32;;;10.50;97.80;;;;;;5087924;28;20255;-73
2021/04/18 11:01:42;;;;;;;9.77;7.85;;;10.60;96.70;;;;;;5086368;28;20214;-72
2021/04/18 11:04:16;;;;;;;8.73;7.28;;;10.60;97.10;;;;;;5087475;28;20268;-71
2021/04/18 11:06:44;;;;;;;8.93;7.53;;;10.60;97.40;;;;;;5087818;28;20587;-72
2021/04/18 11:09:11;;;;;;;8.55;7.63;;;10.50;97.10;;;;;;5074026;28;20311;-71
2021/04/18 11:11:38;;;;;;;8.68;7.70;;;10.50;97.10;;;;;;5066833;28;20211;-72
2021/04/18 11:14:05;;;;;;;10.20;7.45;;;10.50;95.80;;;;;;5065268;28;20203;-70
2021/04/18 11:16:33;;;;;;;11.73;8.68;;;10.40;95.80;;;;;;5066131;28;20200;-71
2021/04/18 11:19:00;;;;;;;8.95;7.10;;;10.30;96.30;;;;;;5064556;28;20274;-71
2021/04/18 11:21:29;;;;;;;8.70;6.55;;;10.40;96.90;;;;;;5066697;28;20204;-71
2021/04/18 11:23:57;;;;;;;10.50;6.43;;;10.40;96.70;;;;;;5066433;28;20837;-70
2021/04/18 11:26:28;;;;;;;11.30;6.72;;;10.60;96.20;;;;;;5065801;28;20691;-72
2021/04/18 11:28:56;;;;;;;7.18;6.28;;;10.80;95.90;;;;;;5045909;28;20221;-71
2021/04/18 11:31:27;;;;;;;9.57;7.68;;;10.90;95.60;;;;;;5045050;28;20211;-71
2021/04/18 11:33:54;;;;;;;6.70;6.05;;;11.10;95.00;;;;;;5046808;28;20209;-71
2021/04/18 11:36:25;;;;;;;6.95;6.22;;;11.00;95.00;;;;;;5045981;28;20606;-71
2021/04/18 11:38:59;;;;;;;7.82;5.93;;;11.00;95.30;;;;;;5046482;28;20236;-70
2021/04/18 11:41:29;;;;;;;6.95;5.90;;;10.80;95.30;;;;;;5046019;28;20209;-70
2021/04/18 11:43:56;;;;;;;7.68;6.30;;;10.70;95.70;;;;;;5046478;28;20237;-71
2021/04/18 11:46:23;;;;;;;7.53;6.00;;;10.60;94.80;;;;;;5046874;28;20292;-71
2021/04/18 11:48:56;;;;;;;7.47;6.13;;;10.60;95.40;;;;;;5066118;28;20232;-72
2021/04/18 11:51:22;;;;;;;7.45;6.60;;;10.50;95.30;;;;;;5064710;28;20196;-70
2021/04/18 11:53:48;;;;;;;8.40;5.80;;;10.50;95.80;;;;;;5065723;28;20223;-71
2021/04/18 11:56:15;;;;;;;7.72;6.85;;;10.50;96.10;;;;;;5064886;28;20208;-71
2021/04/18 11:58:43;;;;;;;8.02;5.97;;;10.50;95.50;;;;;;5064604;28;20233;-71
2021/04/18 12:01:09;;;;;;;7.00;6.30;;;10.50;95.40;;;;;;5064379;28;20208;-70
2021/04/18 12:03:35;;;;;;;7.70;6.40;;;10.60;95.50;;;;;;5064281;28;20257;-70
2021/04/18 12:06:02;;;;;;;7.07;5.90;;;10.50;95.10;;;;;;5064983;28;20208;-70
2021/04/18 12:08:28;;;;;;;8.27;5.60;;;10.80;95.10;;;;;;5063643;28;20224;-71
2021/04/18 12:10:54;;;;;;;7.15;6.13;;;11.10;95.50;;;;;;5064435;28;20211;-70
2021/04/18 12:13:21;;;;;;;6.50;5.65;;;11.10;94.70;;;;;;5064495;28;20204;-71
2021/04/18 12:15:48;;;;;;;8.50;5.40;;;11.00;95.00;;;;;;5064640;28;20208;-71
2021/04/18 12:18:14;;;;;;;6.90;5.95;;;11.00;95.40;;;;;;5064440;28;20221;-70
2021/04/18 12:20:40;;;;;;;6.63;5.95;;;11.00;94.70;;;;;;5081982;28;20204;-70
2021/04/18 12:23:06;;;;;;;6.47;5.88;;;11.00;94.60;;;;;;5084496;28;20276;-70
2021/04/18 12:25:33;;;;;;;6.68;5.55;;;10.80;94.60;;;;;;5084333;28;20208;-70
2021/04/18 12:27:59;;;;;;;6.38;5.78;;;10.80;95.20;;;;;;5084608;28;20226;-70
2021/04/18 12:30:26;;;;;;;6.80;5.80;;;10.90;94.70;;;;;;5083813;28;20208;-71
2021/04/18 12:32:52;;;;;;;7.55;5.90;;;11.00;95.00;;;;;;5084905;28;20203;-71
2021/04/18 12:35:19;;;;;;;8.98;6.35;;;11.10;94.30;;;;;;5084425;28;20202;-70
2021/04/18 12:37:45;;;;;;;6.85;5.80;;;11.00;94.60;;;;;;5084493;28;20196;-70
2021/04/18 12:40:12;;;;;;;6.30;5.25;;;11.10;94.80;;;;;;5086832;28;20655;-70
2021/04/18 12:42:39;;;;;;;7.28;6.07;;;11.10;94.30;;;;;;5091240;28;20210;-70
2021/04/18 12:45:07;;;;;;;5.75;5.25;;;11.30;94.40;;;;;;5091549;28;20207;-70
2021/04/18 12:47:35;;;;;;;6.28;5.68;;;11.30;94.40;;;;;;5086743;28;20230;-69
2021/04/18 12:50:01;;;;;;;6.47;5.85;;;11.50;94.30;;;;;;5091038;28;20223;-70
2021/04/18 12:52:27;;;;;;;6.25;5.50;;;11.90;94.40;;;;;;5088032;28;20211;-70
2021/04/18 12:54:53;;;;;;;6.80;5.67;;;12.30;93.80;;;;;;5090891;28;20207;-70
2021/04/18 12:57:21;;;;;;;8.85;6.40;;;12.70;93.50;;;;;;5090518;28;20449;-70